createdAt,value
2023-03-16T00:02:19.659Z,-3.20
2023-03-16T00:04:49.393Z,-3.40
2023-03-16T00:07:21.720Z,-3.30
2023-03-16T00:09:50.042Z,-3.50
2023-03-16T00:12:18.966Z,-3.30
2023-03-16T00:14:47.805Z,-3.30
2023-03-16T00:17:20.270Z,-3.40
2023-03-16T00:19:54.959Z,-3.50
2023-03-16T00:22:23.728Z,-3.40
2023-03-16T00:24:52.980Z,-3.50
2023-03-16T00:27:23.142Z,-3.50
2023-03-16T00:29:55.838Z,-3.60
2023-03-16T00:32:25.212Z,-3.80
2023-03-16T00:34:54.982Z,-3.80
2023-03-16T00:37:26.545Z,-3.90
2023-03-16T00:39:58.113Z,-3.90
2023-03-16T00:42:27.720Z,-3.80
2023-03-16T00:44:57.743Z,-3.80
2023-03-16T00:47:26.928Z,-3.90
2023-03-16T00:50:00.078Z,-4.10
2023-03-16T00:52:28.845Z,-4.10
2023-03-16T00:54:57.561Z,-4.00
2023-03-16T00:57:30.236Z,-3.70
2023-03-16T00:59:59.574Z,-3.60
2023-03-16T01:02:27.698Z,-3.50
2023-03-16T01:04:57.381Z,-3.60
2023-03-16T01:07:25.764Z,-3.70
2023-03-16T01:09:53.934Z,-3.90
2023-03-16T01:12:24.677Z,-4.00
2023-03-16T01:14:54.073Z,-4.00
2023-03-16T01:17:22.771Z,-4.00
2023-03-16T01:19:51.631Z,-4.00
2023-03-16T01:22:21.526Z,-4.00
2023-03-16T01:24:49.810Z,-4.10
2023-03-16T01:27:18.023Z,-4.10
2023-03-16T01:29:46.176Z,-4.10
2023-03-16T01:32:14.872Z,-4.20
2023-03-16T01:34:43.175Z,-4.30
2023-03-16T01:37:11.660Z,-4.30
2023-03-16T01:39:41.379Z,-4.40
2023-03-16T01:42:09.732Z,-4.50
2023-03-16T01:44:51.681Z,-4.50
2023-03-16T01:47:19.895Z,-4.50
2023-03-16T01:49:48.437Z,-4.50
2023-03-16T01:52:18.483Z,-4.60
2023-03-16T01:54:49.343Z,-4.70
2023-03-16T01:57:19.634Z,-4.80
2023-03-16T01:59:50.075Z,-4.70
2023-03-16T02:02:20.030Z,-4.70
2023-03-16T02:04:50.500Z,-4.80
2023-03-16T02:07:19.717Z,-4.70
2023-03-16T02:09:51.863Z,-4.70
2023-03-16T02:12:20.553Z,-4.80
2023-03-16T02:14:49.508Z,-4.80
2023-03-16T02:17:19.427Z,-4.80
2023-03-16T02:19:57.069Z,-5.00
2023-03-16T02:22:25.606Z,-4.80
2023-03-16T02:24:55.665Z,-4.60
2023-03-16T02:27:28.299Z,-4.70
2023-03-16T02:30:04.024Z,-4.70
2023-03-16T02:32:35.405Z,-4.70
2023-03-16T02:35:04.050Z,-4.80
2023-03-16T02:37:33.969Z,-4.90
2023-03-16T02:40:02.601Z,-4.90
2023-03-16T02:42:31.655Z,-5.00
2023-03-16T02:45:01.363Z,-5.00
2023-03-16T02:47:34.620Z,-5.00
2023-03-16T02:50:06.659Z,-5.00
2023-03-16T02:52:35.606Z,-5.00
2023-03-16T02:55:04.084Z,-5.00
2023-03-16T02:57:32.957Z,-5.20
2023-03-16T03:00:01.499Z,-5.20
2023-03-16T03:02:29.912Z,-5.20
2023-03-16T03:04:59.731Z,-5.10
2023-03-16T03:07:32.092Z,-5.20
2023-03-16T03:10:03.171Z,-5.10
2023-03-16T03:12:31.376Z,-5.10
2023-03-16T03:14:59.539Z,-5.30
2023-03-16T03:17:30.375Z,-5.20
2023-03-16T03:20:00.692Z,-5.10
2023-03-16T03:22:28.980Z,-5.20
2023-03-16T03:24:57.340Z,-5.10
2023-03-16T03:27:25.431Z,-5.10
2023-03-16T03:29:53.639Z,-4.90
2023-03-16T03:32:22.073Z,-4.90
2023-03-16T03:34:50.208Z,-4.80
2023-03-16T03:37:19.845Z,-4.80
2023-03-16T03:39:48.451Z,-4.80
2023-03-16T03:42:16.767Z,-4.80
2023-03-16T03:44:44.999Z,-4.80
2023-03-16T03:47:14.087Z,-4.90
2023-03-16T03:49:42.281Z,-4.80
2023-03-16T03:52:11.183Z,-4.70
2023-03-16T03:54:41.048Z,-4.80
2023-03-16T03:57:09.288Z,-4.90
2023-03-16T03:59:42.645Z,-4.90
2023-03-16T04:02:10.980Z,-4.90
2023-03-16T04:04:40.487Z,-4.90
2023-03-16T04:07:08.709Z,-4.80
2023-03-16T04:09:36.898Z,-4.80
2023-03-16T04:12:07.166Z,-4.70
2023-03-16T04:14:35.361Z,-4.70
2023-03-16T04:17:04.986Z,-4.70
2023-03-16T04:19:33.302Z,-4.80
2023-03-16T04:22:01.585Z,-4.70
2023-03-16T04:24:29.858Z,-4.70
2023-03-16T04:26:57.987Z,-4.70
2023-03-16T04:29:28.313Z,-4.80
2023-03-16T04:31:56.389Z,-4.80
2023-03-16T04:34:25.222Z,-4.70
2023-03-16T04:36:53.438Z,-4.70
2023-03-16T04:39:21.790Z,-4.70
2023-03-16T04:41:50.284Z,-4.70
2023-03-16T04:44:18.521Z,-4.70
2023-03-16T04:46:48.092Z,-4.70
2023-03-16T04:49:16.371Z,-4.70
2023-03-16T04:51:44.695Z,-4.70
2023-03-16T04:54:12.832Z,-4.70
2023-03-16T04:56:41.709Z,-4.70
2023-03-16T04:59:10.946Z,-4.80
2023-03-16T05:01:39.550Z,-4.80
2023-03-16T05:04:11.580Z,-4.80
2023-03-16T05:06:41.584Z,-4.90
2023-03-16T05:09:09.879Z,-4.90
2023-03-16T05:11:38.026Z,-4.80
2023-03-16T05:14:06.313Z,-4.90
2023-03-16T05:16:34.750Z,-5.00
2023-03-16T05:19:04.845Z,-5.00
2023-03-16T05:21:35.841Z,-5.00
2023-03-16T05:24:04.184Z,-5.00
2023-03-16T05:26:35.404Z,-5.10
2023-03-16T05:29:03.511Z,-5.10
2023-03-16T05:31:33.001Z,-5.10
2023-03-16T05:34:02.589Z,-5.20
2023-03-16T05:36:30.812Z,-5.10
2023-03-16T05:39:00.798Z,-4.90
2023-03-16T05:41:29.015Z,-4.80
2023-03-16T05:43:57.187Z,-4.70
2023-03-16T05:46:25.531Z,-4.60
2023-03-16T05:48:53.793Z,-4.50
2023-03-16T05:51:26.605Z,-4.50
2023-03-16T05:53:56.891Z,-4.40
2023-03-16T05:56:27.228Z,-4.40
2023-03-16T05:58:56.137Z,-4.40
2023-03-16T06:01:24.496Z,-4.40
2023-03-16T06:03:53.151Z,-4.40
2023-03-16T06:06:22.871Z,-4.30
2023-03-16T06:08:51.035Z,-4.20
2023-03-16T06:11:19.384Z,-4.20
2023-03-16T06:13:48.994Z,-4.20
2023-03-16T06:16:17.176Z,-4.20
2023-03-16T06:18:45.559Z,-4.10
2023-03-16T06:21:13.654Z,-4.10
2023-03-16T06:23:41.862Z,-4.10
2023-03-16T06:26:10.210Z,-4.10
2023-03-16T06:28:38.325Z,-4.10
2023-03-16T06:31:08.088Z,-3.90
2023-03-16T06:33:36.320Z,-3.80
2023-03-16T06:36:04.586Z,-3.90
2023-03-16T06:38:33.759Z,-3.70
2023-03-16T06:41:02.186Z,-3.70
2023-03-16T06:43:33.506Z,-3.50
2023-03-16T06:46:01.740Z,-3.40
2023-03-16T06:48:32.550Z,-3.40
2023-03-16T06:51:00.839Z,-3.20
2023-03-16T06:53:29.033Z,-3.10
2023-03-16T06:55:57.313Z,-2.90
2023-03-16T06:58:25.407Z,-2.90
2023-03-16T07:01:01.219Z,-2.90
2023-03-16T07:03:31.733Z,-2.90
2023-03-16T07:06:01.741Z,-2.90
2023-03-16T07:08:30.121Z,-2.90
2023-03-16T07:10:58.271Z,-2.70
2023-03-16T07:13:26.553Z,-2.70
2023-03-16T07:15:54.971Z,-2.60
2023-03-16T07:18:23.189Z,-2.60
2023-03-16T07:20:51.989Z,-2.50
2023-03-16T07:23:21.590Z,-2.40
2023-03-16T07:25:49.928Z,-2.30
2023-03-16T07:28:18.095Z,-2.30
2023-03-16T07:31:02.503Z,-2.20
2023-03-16T07:33:32.319Z,-2.10
2023-03-16T07:36:00.869Z,-2.00
2023-03-16T07:38:30.695Z,-1.90
2023-03-16T07:40:59.106Z,-1.80
2023-03-16T07:43:27.316Z,-1.70
2023-03-16T07:45:55.966Z,-1.60
2023-03-16T07:48:24.369Z,-1.50
2023-03-16T07:50:52.572Z,-1.40
2023-03-16T07:53:20.862Z,-1.30
2023-03-16T07:55:50.666Z,-1.20
2023-03-16T07:58:18.894Z,-1.20
2023-03-16T08:00:47.185Z,-1.10
2023-03-16T08:03:16.242Z,-1.00
2023-03-16T08:05:44.824Z,-0.90
2023-03-16T08:08:13.301Z,-0.80
2023-03-16T08:10:41.788Z,-0.80
2023-03-16T08:13:11.493Z,-0.70
2023-03-16T08:15:40.372Z,-0.60
2023-03-16T08:18:08.469Z,-0.60
2023-03-16T08:20:36.983Z,-0.60
2023-03-16T08:23:05.421Z,-0.40
2023-03-16T08:25:33.503Z,-0.60
2023-03-16T08:28:02.392Z,-0.40
2023-03-16T08:30:32.282Z,-0.60
2023-03-16T08:33:01.659Z,-0.50
2023-03-16T08:35:30.497Z,-0.20
2023-03-16T08:38:01.140Z,0.00
2023-03-16T08:40:30.200Z,0.00
2023-03-16T08:42:58.686Z,-0.10
2023-03-16T08:45:27.092Z,-0.10
2023-03-16T08:47:56.859Z,0.10
2023-03-16T08:50:25.030Z,0.00
2023-03-16T08:52:53.652Z,0.30
2023-03-16T08:55:21.920Z,0.20
2023-03-16T08:57:50.063Z,0.30
2023-03-16T09:00:18.566Z,0.60
2023-03-16T09:02:47.102Z,0.80
2023-03-16T09:05:18.419Z,0.70
2023-03-16T09:07:49.187Z,0.70
2023-03-16T09:10:17.649Z,0.80
2023-03-16T09:12:46.112Z,0.90
2023-03-16T09:15:15.030Z,0.90
2023-03-16T09:17:45.293Z,1.00
2023-03-16T09:20:21.784Z,1.10
2023-03-16T09:22:52.733Z,1.10
2023-03-16T09:25:21.348Z,1.20
2023-03-16T09:27:49.505Z,1.30
2023-03-16T09:30:18.315Z,1.40
2023-03-16T09:32:49.101Z,1.30
2023-03-16T09:35:17.711Z,1.20
2023-03-16T09:38:04.254Z,1.10
2023-03-16T09:40:36.234Z,1.40
2023-03-16T09:43:31.304Z,1.50
2023-03-16T09:46:03.756Z,1.60
2023-03-16T09:48:34.182Z,1.60
2023-03-16T09:51:04.138Z,1.60
2023-03-16T09:53:34.382Z,1.70
2023-03-16T09:56:05.470Z,1.70
2023-03-16T09:58:34.277Z,1.80
2023-03-16T10:01:10.074Z,1.90
2023-03-16T10:03:49.193Z,2.00
2023-03-16T10:06:17.447Z,1.70
2023-03-16T10:08:46.973Z,1.90
2023-03-16T10:11:33.169Z,1.70
2023-03-16T10:14:05.664Z,1.90
2023-03-16T10:16:35.653Z,1.90
2023-03-16T10:19:07.484Z,2.10
2023-03-16T10:21:40.177Z,2.20
2023-03-16T10:24:15.414Z,2.20
2023-03-16T10:26:45.329Z,2.30
2023-03-16T10:29:14.939Z,2.20
2023-03-16T10:31:43.453Z,2.30
2023-03-16T10:34:13.236Z,2.30
2023-03-16T10:36:43.328Z,2.10
2023-03-16T10:39:12.900Z,2.00
2023-03-16T10:41:43.562Z,1.70
2023-03-16T10:44:12.717Z,1.80
2023-03-16T10:46:45.153Z,2.20
2023-03-16T10:49:25.945Z,2.40
2023-03-16T10:51:57.974Z,2.70
2023-03-16T10:54:30.798Z,2.60
2023-03-16T10:56:59.588Z,2.60
2023-03-16T10:59:31.547Z,2.60
2023-03-16T11:02:01.837Z,2.90
2023-03-16T11:04:32.739Z,2.50
2023-03-16T11:07:00.871Z,2.50
2023-03-16T11:09:36.200Z,2.30
2023-03-16T11:12:15.643Z,2.80
2023-03-16T11:14:46.881Z,3.00
2023-03-16T11:17:19.313Z,3.10
2023-03-16T11:19:51.699Z,3.00
2023-03-16T11:22:21.515Z,2.90
2023-03-16T11:24:51.495Z,2.80
2023-03-16T11:27:23.535Z,2.90
2023-03-16T11:29:58.780Z,2.90
2023-03-16T11:32:30.826Z,3.00
2023-03-16T11:34:59.082Z,3.10
2023-03-16T11:37:34.291Z,2.90
2023-03-16T11:40:14.339Z,2.40
2023-03-16T11:42:47.709Z,2.90
2023-03-16T11:45:20.292Z,2.80
2023-03-16T11:48:06.016Z,2.90
2023-03-16T11:50:38.464Z,2.80
2023-03-16T11:53:09.684Z,2.70
2023-03-16T11:55:41.511Z,2.80
2023-03-16T11:58:16.580Z,2.70
2023-03-16T12:00:51.744Z,3.00
2023-03-16T12:03:31.296Z,3.20
2023-03-16T12:06:05.684Z,2.60
2023-03-16T12:08:54.721Z,3.00
2023-03-16T12:11:24.828Z,3.50
2023-03-16T12:14:00.546Z,3.40
2023-03-16T12:16:46.267Z,3.40
2023-03-16T12:19:22.105Z,3.40
2023-03-16T12:21:56.611Z,3.70
2023-03-16T12:24:27.995Z,3.70
2023-03-16T12:26:56.248Z,3.40
2023-03-16T12:29:30.105Z,3.60
2023-03-16T12:32:03.541Z,3.30
2023-03-16T12:34:35.764Z,3.00
2023-03-16T12:37:10.751Z,3.20
2023-03-16T12:39:56.509Z,3.30
2023-03-16T12:42:33.685Z,3.60
2023-03-16T12:45:03.864Z,3.30
2023-03-16T12:47:34.924Z,3.60
2023-03-16T12:50:09.479Z,3.40
2023-03-16T12:52:42.324Z,3.60
2023-03-16T12:55:17.761Z,3.60
2023-03-16T12:57:47.046Z,4.00
2023-03-16T13:00:16.367Z,3.90
2023-03-16T13:02:46.203Z,4.10
2023-03-16T13:05:17.616Z,4.10
2023-03-16T13:07:49.608Z,3.70
2023-03-16T13:10:22.493Z,3.40
2023-03-16T13:12:51.782Z,3.80
2023-03-16T13:15:32.588Z,4.30
2023-03-16T13:18:21.328Z,3.60
2023-03-16T13:20:56.711Z,3.40
2023-03-16T13:23:25.978Z,3.60
2023-03-16T13:26:02.455Z,3.60
2023-03-16T13:28:31.765Z,3.40
2023-03-16T13:31:01.181Z,2.90
2023-03-16T13:33:31.470Z,3.10
2023-03-16T13:36:01.616Z,3.20
2023-03-16T13:38:31.593Z,2.70
2023-03-16T13:41:03.407Z,2.50
2023-03-16T13:43:33.211Z,2.90
2023-03-16T13:46:01.565Z,2.70
2023-03-16T13:48:30.069Z,3.30
2023-03-16T13:50:59.038Z,3.60
2023-03-16T13:53:30.078Z,4.00
2023-03-16T13:55:59.658Z,3.60
2023-03-16T13:58:32.600Z,4.10
2023-03-16T14:01:03.597Z,3.60
2023-03-16T14:03:33.269Z,3.70
2023-03-16T14:06:01.985Z,4.10
2023-03-16T14:08:32.551Z,4.50
2023-03-16T14:11:01.653Z,4.10
2023-03-16T14:13:36.469Z,3.80
2023-03-16T14:16:07.866Z,3.00
2023-03-16T14:18:37.449Z,3.70
2023-03-16T14:21:08.411Z,3.70
2023-03-16T14:23:40.706Z,3.40
2023-03-16T14:26:12.857Z,2.90
2023-03-16T14:28:41.744Z,2.90
2023-03-16T14:31:12.064Z,3.10
2023-03-16T14:33:42.086Z,2.70
2023-03-16T14:36:14.295Z,2.70
2023-03-16T14:38:44.840Z,2.60
2023-03-16T14:41:18.906Z,2.80
2023-03-16T14:43:49.451Z,2.70
2023-03-16T14:46:19.841Z,2.60
2023-03-16T14:48:48.663Z,2.40
2023-03-16T14:51:16.790Z,2.40
2023-03-16T14:53:46.308Z,2.40
2023-03-16T14:56:14.829Z,2.40
2023-03-16T14:58:43.139Z,2.70
2023-03-16T15:01:15.680Z,2.40
2023-03-16T15:03:44.260Z,2.50
2023-03-16T15:06:12.435Z,2.50
2023-03-16T15:08:44.574Z,2.30
2023-03-16T15:11:14.370Z,2.30
2023-03-16T15:14:03.973Z,2.40
2023-03-16T15:16:33.025Z,2.60
2023-03-16T15:19:01.402Z,2.50
2023-03-16T15:21:31.235Z,2.30
2023-03-16T15:23:59.995Z,2.30
2023-03-16T15:26:30.079Z,2.30
2023-03-16T15:28:59.525Z,2.20
2023-03-16T15:31:27.783Z,2.30
2023-03-16T15:33:56.261Z,2.30
2023-03-16T15:36:25.082Z,2.30
2023-03-16T15:38:54.971Z,2.30
2023-03-16T15:41:24.918Z,2.10
2023-03-16T15:44:00.920Z,2.10
2023-03-16T15:46:29.256Z,2.20
2023-03-16T15:48:57.628Z,2.10
2023-03-16T15:51:29.122Z,2.00
2023-03-16T15:53:59.726Z,2.10
2023-03-16T15:56:33.537Z,2.50
2023-03-16T15:59:09.733Z,2.20
2023-03-16T16:01:45.213Z,2.10
2023-03-16T16:04:15.650Z,1.90
2023-03-16T16:06:44.082Z,1.50
2023-03-16T16:09:12.461Z,1.40
2023-03-16T16:11:41.341Z,1.20
2023-03-16T16:14:13.528Z,1.10
2023-03-16T16:16:43.382Z,1.10
2023-03-16T16:19:14.036Z,1.10
2023-03-16T16:21:46.644Z,1.40
2023-03-16T16:24:15.801Z,1.40
2023-03-16T16:26:55.240Z,1.40
2023-03-16T16:29:27.259Z,1.40
2023-03-16T16:31:55.718Z,1.30
2023-03-16T16:34:25.371Z,1.30
2023-03-16T16:36:53.976Z,1.30
2023-03-16T16:39:24.571Z,1.20
2023-03-16T16:41:54.724Z,1.00
2023-03-16T16:44:24.160Z,1.00
2023-03-16T16:46:54.869Z,0.90
2023-03-16T16:49:24.270Z,0.90
2023-03-16T16:51:53.030Z,0.80
2023-03-16T16:54:22.804Z,0.80
2023-03-16T16:56:52.247Z,0.70
2023-03-16T16:59:21.318Z,0.50
2023-03-16T17:01:50.936Z,0.40
2023-03-16T17:04:23.512Z,0.40
2023-03-16T17:06:58.324Z,0.30
2023-03-16T17:09:27.479Z,0.00
2023-03-16T17:11:58.765Z,0.00
2023-03-16T17:14:28.568Z,-0.10
2023-03-16T17:16:57.257Z,-0.30
2023-03-16T17:19:29.686Z,-0.20
2023-03-16T17:21:58.745Z,-0.20
2023-03-16T17:24:27.558Z,-0.30
2023-03-16T17:26:57.386Z,-0.30
2023-03-16T17:29:27.212Z,-0.60
2023-03-16T17:31:55.584Z,-0.90
2023-03-16T17:34:24.500Z,-0.90
2023-03-16T17:36:54.761Z,-0.80
2023-03-16T17:39:24.195Z,-0.90
2023-03-16T17:41:53.319Z,-0.80
2023-03-16T17:44:21.683Z,-1.00
2023-03-16T17:46:50.122Z,-0.90
2023-03-16T17:49:20.083Z,-1.00
2023-03-16T17:51:49.141Z,-0.90
2023-03-16T17:54:18.832Z,-1.00
2023-03-16T17:56:47.784Z,-1.00
2023-03-16T17:59:17.644Z,-1.10
2023-03-16T18:01:47.260Z,-1.10
2023-03-16T18:04:17.885Z,-1.20
2023-03-16T18:06:49.357Z,-1.30
2023-03-16T18:09:19.730Z,-1.30
2023-03-16T18:11:51.192Z,-1.30
2023-03-16T18:14:24.223Z,-1.50
2023-03-16T18:16:54.719Z,-1.40
2023-03-16T18:19:25.450Z,-1.50
2023-03-16T18:21:54.296Z,-1.60
2023-03-16T18:24:26.769Z,-1.60
2023-03-16T18:26:55.422Z,-1.60
2023-03-16T18:29:24.185Z,-1.70
2023-03-16T18:31:55.193Z,-1.70
2023-03-16T18:34:24.948Z,-1.80
2023-03-16T18:37:00.477Z,-1.80
2023-03-16T18:39:30.718Z,-1.90
2023-03-16T18:41:58.851Z,-1.80
2023-03-16T18:44:30.654Z,-1.90
2023-03-16T18:47:02.319Z,-2.00
2023-03-16T18:49:35.089Z,-2.00
2023-03-16T18:52:03.748Z,-2.10
2023-03-16T18:54:35.690Z,-2.10
2023-03-16T18:57:05.783Z,-2.10
2023-03-16T18:59:35.716Z,-2.30
2023-03-16T19:02:04.303Z,-2.30
2023-03-16T19:04:33.041Z,-2.40
2023-03-16T19:07:01.158Z,-2.50
2023-03-16T19:09:32.182Z,-2.50
2023-03-16T19:12:04.007Z,-2.50
2023-03-16T19:14:33.133Z,-2.50
2023-03-16T19:17:01.350Z,-2.50
2023-03-16T19:19:29.656Z,-2.50
2023-03-16T19:21:59.858Z,-2.50
2023-03-16T19:24:30.007Z,-2.50
2023-03-16T19:26:58.456Z,-2.50
2023-03-16T19:29:31.275Z,-2.60
2023-03-16T19:32:02.515Z,-2.50
2023-03-16T19:34:31.920Z,-2.60
2023-03-16T19:37:00.319Z,-2.60
2023-03-16T19:39:28.528Z,-2.50
2023-03-16T19:41:58.118Z,-2.60
2023-03-16T19:44:27.382Z,-2.70
2023-03-16T19:46:59.267Z,-2.80
2023-03-16T19:49:28.348Z,-2.70
2023-03-16T19:51:56.812Z,-2.70
2023-03-16T19:54:25.586Z,-2.80
2023-03-16T19:56:54.395Z,-2.90
2023-03-16T19:59:23.189Z,-3.00
2023-03-16T20:01:52.213Z,-2.90
2023-03-16T20:04:23.690Z,-3.10
2023-03-16T20:06:54.321Z,-3.10
2023-03-16T20:09:23.745Z,-3.00
2023-03-16T20:11:52.215Z,-3.00
2023-03-16T20:14:22.037Z,-3.00
2023-03-16T20:16:50.466Z,-3.00
2023-03-16T20:19:20.883Z,-3.10
2023-03-16T20:21:52.005Z,-3.00
2023-03-16T20:24:20.899Z,-2.90
2023-03-16T20:26:52.178Z,-2.70
2023-03-16T20:29:22.330Z,-2.60
2023-03-16T20:31:50.768Z,-2.60
2023-03-16T20:34:22.526Z,-2.60
2023-03-16T20:36:52.237Z,-2.60
2023-03-16T20:39:20.391Z,-2.80
2023-03-16T20:41:48.738Z,-2.80
2023-03-16T20:44:18.444Z,-3.00
2023-03-16T20:46:47.356Z,-3.00
2023-03-16T20:49:30.086Z,-2.90
2023-03-16T20:52:02.279Z,-2.70
2023-03-16T20:54:30.415Z,-2.70
2023-03-16T20:56:58.893Z,-2.80
2023-03-16T20:59:28.332Z,-2.50
2023-03-16T21:01:56.748Z,-2.50
2023-03-16T21:04:25.904Z,-2.70
2023-03-16T21:06:54.664Z,-2.80
2023-03-16T21:09:24.387Z,-2.80
2023-03-16T21:11:52.770Z,-2.80
2023-03-16T21:14:22.332Z,-2.80
2023-03-16T21:16:51.120Z,-3.00
2023-03-16T21:19:21.136Z,-2.90
2023-03-16T21:21:49.600Z,-2.90
2023-03-16T21:24:18.014Z,-2.80
2023-03-16T21:26:48.150Z,-2.70
2023-03-16T21:29:18.333Z,-2.70
2023-03-16T21:31:48.672Z,-2.80
2023-03-16T21:34:22.773Z,-2.80
2023-03-16T21:36:51.074Z,-2.60
2023-03-16T21:39:22.515Z,-2.60
2023-03-16T21:41:52.282Z,-2.70
2023-03-16T21:44:23.505Z,-2.60
2023-03-16T21:46:51.873Z,-2.50
2023-03-16T21:49:20.210Z,-2.60
2023-03-16T21:51:50.115Z,-2.70
2023-03-16T21:54:19.375Z,-2.70
2023-03-16T21:56:48.058Z,-2.60
2023-03-16T21:59:17.687Z,-2.60
2023-03-16T22:02:01.236Z,-2.50
2023-03-16T22:04:30.419Z,-2.40
2023-03-16T22:06:58.526Z,-2.40
2023-03-16T22:09:30.402Z,-2.30
2023-03-16T22:11:58.906Z,-2.40
2023-03-16T22:14:28.678Z,-2.40
2023-03-16T22:16:57.468Z,-2.40
2023-03-16T22:19:27.201Z,-2.30
2023-03-16T22:21:56.083Z,-2.30
2023-03-16T22:24:24.904Z,-2.30
2023-03-16T22:26:53.781Z,-2.30
2023-03-16T22:29:23.458Z,-2.30
2023-03-16T22:31:55.550Z,-2.30
2023-03-16T22:34:29.166Z,-2.20
2023-03-16T22:36:58.028Z,-2.20
2023-03-16T22:39:26.423Z,-2.30
2023-03-16T22:41:56.078Z,-2.30
2023-03-16T22:44:25.012Z,-2.30
2023-03-16T22:46:54.622Z,-2.40
2023-03-16T22:49:24.192Z,-2.40
2023-03-16T22:51:52.945Z,-2.40
2023-03-16T22:54:22.735Z,-2.30
2023-03-16T22:56:51.522Z,-2.30
2023-03-16T22:59:22.426Z,-2.20
2023-03-16T23:01:51.325Z,-2.30
2023-03-16T23:04:22.325Z,-2.30
2023-03-16T23:06:51.536Z,-2.30
2023-03-16T23:09:20.567Z,-2.40
2023-03-16T23:11:50.480Z,-2.40
2023-03-16T23:14:21.339Z,-2.30
2023-03-16T23:16:50.053Z,-2.30
2023-03-16T23:19:30.136Z,-2.30
2023-03-16T23:21:59.017Z,-2.30
2023-03-16T23:24:27.363Z,-2.40
2023-03-16T23:26:56.027Z,-2.40
2023-03-16T23:29:24.779Z,-2.40
2023-03-16T23:31:56.783Z,-2.40
2023-03-16T23:34:25.746Z,-2.30
2023-03-16T23:36:56.779Z,-2.40
2023-03-16T23:39:25.882Z,-2.40
2023-03-16T23:41:54.242Z,-2.40
2023-03-16T23:44:23.504Z,-2.40
2023-03-16T23:46:52.518Z,-2.40
2023-03-16T23:49:22.898Z,-2.40
2023-03-16T23:51:57.301Z,-2.40
2023-03-16T23:54:26.161Z,-2.40
2023-03-16T23:56:54.737Z,-2.40
2023-03-16T23:59:23.634Z,-2.40
